Time;durP1;ratioP1;P1;durP2;ratioP2;P2;SDS_P1;SDS_P2;PMS_P1;PMS_P2;Temp;Humidity;BMP_temperature;BMP_pressure;BME280_temperature;BME280_humidity;BME280_pressure;Samples;Min_cycle;Max_cycle;Signal;HPM_P1;HPM_P2
2022/11/18 00:04:08;;;;;;;2.27;1.03;;;;;;;;;;10519294;28;20036;-75
2022/11/18 00:09:12;;;;;;;7.47;1.67;;;;;;;;;;10514186;28;20068;-75
2022/11/18 00:14:19;;;;;;;15.57;3.55;;;;;;;;;;10511701;28;20040;-76
2022/11/18 00:19:24;;;;;;;1.33;0.68;;;;;;;;;;10520389;28;20068;-77
2022/11/18 00:24:29;;;;;;;0.90;0.57;;;;;;;;;;10515378;28;20043;-73
2022/11/18 00:29:33;;;;;;;8.50;2.25;;;;;;;;;;10510903;28;20044;-74
2022/11/18 00:34:35;;;;;;;2.15;1.10;;;;;;;;;;10517997;28;20562;-75
2022/11/18 00:39:39;;;;;;;0.93;0.38;;;;;;;;;;10519566;28;20048;-74
2022/11/18 00:44:42;;;;;;;2.88;1.33;;;;;;;;;;10513908;28;20032;-74
2022/11/18 00:49:44;;;;;;;1.13;0.57;;;;;;;;;;10519946;28;20043;-74
2022/11/18 00:54:48;;;;;;;0.95;0.50;;;;;;;;;;10513297;28;20048;-75
2022/11/18 00:59:51;;;;;;;2.00;0.90;;;;;;;;;;10517354;28;20040;-74
2022/11/18 01:04:54;;;;;;;2.15;0.90;;;;;;;;;;10511924;28;20123;-74
2022/11/18 01:09:58;;;;;;;0.95;0.40;;;;;;;;;;10516456;28;20390;-74
2022/11/18 01:15:00;;;;;;;1.15;0.82;;;;;;;;;;10514955;28;20046;-73
2022/11/18 01:20:03;;;;;;;0.70;0.65;;;;;;;;;;10510038;28;20040;-76
2022/11/18 01:25:07;;;;;;;0.35;0.28;;;;;;;;;;10513183;28;20033;-76
2022/11/18 01:30:11;;;;;;;1.42;0.70;;;;;;;;;;10512711;28;20595;-73
2022/11/18 01:35:13;;;;;;;0.88;0.35;;;;;;;;;;10508992;28;20507;-74
2022/11/18 01:40:17;;;;;;;0.43;0.25;;;;;;;;;;10508889;28;20048;-74
2022/11/18 01:45:24;;;;;;;1.25;0.60;;;;;;;;;;10510181;28;20033;-74
2022/11/18 01:50:27;;;;;;;0.65;0.30;;;;;;;;;;10521016;28;20040;-74
2022/11/18 01:55:34;;;;;;;3.60;0.90;;;;;;;;;;10509287;28;20039;-74
2022/11/18 02:00:37;;;;;;;2.25;0.60;;;;;;;;;;10511513;28;20044;-74
2022/11/18 02:05:41;;;;;;;2.15;0.60;;;;;;;;;;10505624;28;20032;-74
2022/11/18 02:10:46;;;;;;;1.08;0.70;;;;;;;;;;10510770;28;20439;-73
2022/11/18 02:15:48;;;;;;;;;;;;;;;;;;10504998;28;21602;-76
2022/11/18 02:20:56;;;;;;;0.70;0.43;;;;;;;;;;10506562;28;20405;-76
2022/11/18 02:26:05;;;;;;;0.80;0.57;;;;;;;;;;10511878;28;20069;-76
2022/11/18 02:31:14;;;;;;;1.17;0.73;;;;;;;;;;10512972;28;20040;-75
2022/11/18 02:36:28;;;;;;;0.75;0.70;;;;;;;;;;10506285;28;20070;-75
2022/11/18 02:41:31;;;;;;;0.98;0.43;;;;;;;;;;10509045;28;20108;-77
2022/11/18 02:46:39;;;;;;;0.40;0.30;;;;;;;;;;10507300;28;20044;-76
2022/11/18 02:51:43;;;;;;;1.42;0.50;;;;;;;;;;10517596;28;20301;-78
2022/11/18 02:56:46;;;;;;;1.27;0.30;;;;;;;;;;10520961;28;20631;-75
2022/11/18 03:01:50;;;;;;;1.13;0.50;;;;;;;;;;10512154;28;20504;-75
2022/11/18 03:06:56;;;;;;;0.47;0.45;;;;;;;;;;10514131;28;20039;-75
2022/11/18 03:12:03;;;;;;;0.95;0.32;;;;;;;;;;10520098;28;20076;-75
2022/11/18 03:17:11;;;;;;;0.20;0.15;;;;;;;;;;10514600;28;20199;-75
2022/11/18 03:22:17;;;;;;;0.63;0.50;;;;;;;;;;10518415;28;20501;-74
2022/11/18 03:27:22;;;;;;;0.30;0.22;;;;;;;;;;10517745;28;20048;-74
2022/11/18 03:32:27;;;;;;;0.65;0.28;;;;;;;;;;10520160;28;21602;-74
2022/11/18 03:37:31;;;;;;;0.70;0.50;;;;;;;;;;10512616;28;20106;-74
2022/11/18 03:42:40;;;;;;;2.78;0.77;;;;;;;;;;10499130;28;20040;-74
2022/11/18 03:47:47;;;;;;;0.20;0.20;;;;;;;;;;10517292;28;20183;-74
2022/11/18 03:52:58;;;;;;;0.52;0.30;;;;;;;;;;10518297;28;20052;-74
2022/11/18 03:58:03;;;;;;;0.50;0.10;;;;;;;;;;10522032;28;20096;-75
2022/11/18 04:03:08;;;;;;;0.20;0.20;;;;;;;;;;10520849;28;20028;-75
2022/11/18 04:08:10;;;;;;;;;;;;;;;;;;10536469;27;20040;-75
2022/11/18 04:13:15;;;;;;;0.68;0.28;;;;;;;;;;10512470;28;19930;-74
2022/11/18 04:18:19;;;;;;;0.50;0.17;;;;;;;;;;10514955;28;20374;-75
2022/11/18 04:23:22;;;;;;;1.95;0.20;;;;;;;;;;10516271;28;20047;-75
2022/11/18 04:28:25;;;;;;;0.28;0.20;;;;;;;;;;10522090;28;20287;-75
2022/11/18 04:33:29;;;;;;;0.52;0.30;;;;;;;;;;10510093;28;20375;-74
2022/11/18 04:38:31;;;;;;;0.47;0.30;;;;;;;;;;10525312;28;20401;-75
2022/11/18 04:43:34;;;;;;;0.08;0.08;;;;;;;;;;10522709;28;20115;-76
2022/11/18 04:48:39;;;;;;;1.00;0.30;;;;;;;;;;10518317;28;20528;-73
2022/11/18 04:53:42;;;;;;;1.00;0.28;;;;;;;;;;10515488;28;20136;-74
2022/11/18 04:58:44;;;;;;;0.43;0.10;;;;;;;;;;10515857;28;20044;-74
2022/11/18 05:03:49;;;;;;;0.10;0.10;;;;;;;;;;10510338;28;20037;-74
2022/11/18 05:08:52;;;;;;;1.75;0.40;;;;;;;;;;10510742;28;20198;-74
2022/11/18 05:13:55;;;;;;;0.10;0.10;;;;;;;;;;10520181;28;20113;-74
2022/11/18 05:18:58;;;;;;;0.65;0.30;;;;;;;;;;10517912;28;20055;-74
2022/11/18 05:24:01;;;;;;;0.20;0.13;;;;;;;;;;10513168;28;20074;-75
2022/11/18 05:29:04;;;;;;;0.43;0.08;;;;;;;;;;10512544;28;20059;-75
2022/11/18 05:34:08;;;;;;;0.90;0.10;;;;;;;;;;10505867;28;20104;-76
2022/11/18 05:39:10;;;;;;;0.10;0.10;;;;;;;;;;10513260;28;20041;-74
2022/11/18 05:44:13;;;;;;;2.13;0.32;;;;;;;;;;10515289;28;20044;-76
2022/11/18 05:49:17;;;;;;;0.10;0.10;;;;;;;;;;10497004;28;20036;-75
2022/11/18 05:54:21;;;;;;;0.10;0.05;;;;;;;;;;10510270;28;20080;-75
2022/11/18 05:59:23;;;;;;;1.10;0.32;;;;;;;;;;10512741;28;20521;-75
2022/11/18 06:04:30;;;;;;;0.17;0.13;;;;;;;;;;10499396;28;20033;-74
2022/11/18 06:09:36;;;;;;;0.20;0.10;;;;;;;;;;10517790;28;20037;-74
2022/11/18 06:14:42;;;;;;;0.68;0.40;;;;;;;;;;10512902;28;20051;-74
2022/11/18 06:19:46;;;;;;;0.28;0.20;;;;;;;;;;10521935;28;20264;-75
2022/11/18 06:24:49;;;;;;;0.17;0.10;;;;;;;;;;10513352;28;20043;-75
2022/11/18 06:29:51;;;;;;;0.30;0.30;;;;;;;;;;10512300;28;20047;-75
2022/11/18 06:34:56;;;;;;;0.63;0.10;;;;;;;;;;10519425;28;20128;-76
2022/11/18 06:39:58;;;;;;;0.10;0.10;;;;;;;;;;10520556;28;20044;-75
2022/11/18 06:45:01;;;;;;;0.32;0.32;;;;;;;;;;10520004;28;20036;-75
2022/11/18 06:50:06;;;;;;;2.38;1.30;;;;;;;;;;10518731;28;20057;-75
2022/11/18 06:55:09;;;;;;;0.38;0.22;;;;;;;;;;10516581;28;20099;-74
2022/11/18 07:00:12;;;;;;;0.85;0.45;;;;;;;;;;10522493;28;20401;-75
2022/11/18 07:05:16;;;;;;;0.67;0.20;;;;;;;;;;10519996;28;20040;-76
2022/11/18 07:10:22;;;;;;;0.45;0.20;;;;;;;;;;10527627;28;20496;-73
2022/11/18 07:15:25;;;;;;;0.10;0.10;;;;;;;;;;10540730;28;20370;-74
2022/11/18 07:20:30;;;;;;;0.77;0.25;;;;;;;;;;10518352;28;20040;-75
2022/11/18 07:25:32;;;;;;;0.40;0.30;;;;;;;;;;10520141;28;20093;-75
2022/11/18 07:30:35;;;;;;;0.57;0.20;;;;;;;;;;10522663;28;20206;-75
2022/11/18 07:35:39;;;;;;;0.10;0.10;;;;;;;;;;10512243;28;20382;-74
2022/11/18 07:40:41;;;;;;;0.38;0.17;;;;;;;;;;10517675;28;20720;-74
2022/11/18 07:45:46;;;;;;;0.75;0.30;;;;;;;;;;10513468;28;20367;-77
2022/11/18 07:50:51;;;;;;;0.20;0.20;;;;;;;;;;10503447;28;20047;-78
2022/11/18 07:55:54;;;;;;;0.47;0.20;;;;;;;;;;10502325;28;20044;-75
2022/11/18 08:00:57;;;;;;;1.33;0.27;;;;;;;;;;10514311;28;20267;-76
2022/11/18 08:06:01;;;;;;;1.50;0.30;;;;;;;;;;10500713;28;20062;-74
2022/11/18 08:11:05;;;;;;;0.30;0.30;;;;;;;;;;10503843;28;20056;-77
2022/11/18 08:16:12;;;;;;;0.30;0.30;;;;;;;;;;10508864;28;20126;-75
2022/11/18 08:21:17;;;;;;;0.40;0.30;;;;;;;;;;10511422;28;20035;-76
2022/11/18 08:26:20;;;;;;;3.40;0.60;;;;;;;;;;10505663;28;20047;-75
2022/11/18 08:31:24;;;;;;;0.50;0.30;;;;;;;;;;10502345;28;20040;-76
2022/11/18 08:36:29;;;;;;;1.10;0.65;;;;;;;;;;10509920;28;20140;-75
2022/11/18 08:41:32;;;;;;;1.13;0.68;;;;;;;;;;10506638;28;20049;-75
2022/11/18 08:46:45;;;;;;;2.85;0.52;;;;;;;;;;10505434;28;20036;-74
2022/11/18 08:51:49;;;;;;;1.05;0.75;;;;;;;;;;10506724;28;20094;-75
2022/11/18 08:56:51;;;;;;;1.85;0.77;;;;;;;;;;10508838;28;20044;-75
2022/11/18 09:01:54;;;;;;;0.73;0.70;;;;;;;;;;10511769;28;20075;-75
2022/11/18 09:06:58;;;;;;;2.28;1.05;;;;;;;;;;10509636;28;20048;-74
2022/11/18 09:12:01;;;;;;;;;;;;;;;;;;10513708;28;20525;-74
2022/11/18 09:17:04;;;;;;;2.30;0.77;;;;;;;;;;10509031;28;20056;-75
2022/11/18 09:22:08;;;;;;;2.90;1.30;;;;;;;;;;10512982;28;20028;-77
2022/11/18 09:27:11;;;;;;;2.03;0.80;;;;;;;;;;10502054;28;20167;-77
2022/11/18 09:32:19;;;;;;;0.95;0.68;;;;;;;;;;10513375;28;20062;-74
2022/11/18 09:37:23;;;;;;;1.90;0.80;;;;;;;;;;10512556;28;20296;-76
2022/11/18 09:42:32;;;;;;;0.90;0.50;;;;;;;;;;10507587;28;20036;-75
2022/11/18 09:47:35;;;;;;;0.22;0.20;;;;;;;;;;10499594;28;20602;-75
2022/11/18 09:52:42;;;;;;;0.30;0.30;;;;;;;;;;10504785;28;20056;-75
2022/11/18 09:57:46;;;;;;;1.48;0.40;;;;;;;;;;10514847;28;20306;-75
2022/11/18 10:02:53;;;;;;;0.13;0.13;;;;;;;;;;10501393;28;20224;-74
2022/11/18 10:08:00;;;;;;;0.32;0.20;;;;;;;;;;10499421;28;20032;-74
2022/11/18 10:13:09;;;;;;;0.32;0.30;;;;;;;;;;10502733;28;20212;-76
2022/11/18 10:18:22;;;;;;;0.57;0.25;;;;;;;;;;10514286;28;20122;-75
2022/11/18 10:23:51;;;;;;;0.52;0.38;;;;;;;;;;10505269;28;20029;-74
2022/11/18 10:28:54;;;;;;;1.30;0.20;;;;;;;;;;10512754;28;20111;-75
2022/11/18 10:34:00;;;;;;;0.20;0.20;;;;;;;;;;10508427;28;20029;-75
2022/11/18 10:39:12;;;;;;;0.60;0.40;;;;;;;;;;10502521;28;20517;-76
2022/11/18 10:44:35;;;;;;;0.30;0.30;;;;;;;;;;10510652;28;20237;-76
2022/11/18 10:49:38;;;;;;;0.73;0.55;;;;;;;;;;10517596;28;20036;-74
2022/11/18 10:54:42;;;;;;;1.10;0.43;;;;;;;;;;10502941;28;20047;-74
2022/11/18 10:59:47;;;;;;;0.30;0.30;;;;;;;;;;10508460;28;20036;-74
2022/11/18 11:04:50;;;;;;;0.68;0.40;;;;;;;;;;10503710;28;20742;-74
2022/11/18 11:10:01;;;;;;;2.13;0.57;;;;;;;;;;10514334;28;20047;-75
2022/11/18 11:15:05;;;;;;;1.52;0.57;;;;;;;;;;10488695;28;20040;-76
2022/11/18 11:20:18;;;;;;;0.90;0.55;;;;;;;;;;10505285;28;20497;-75
2022/11/18 11:25:26;;;;;;;0.90;0.63;;;;;;;;;;10505289;28;20127;-76
2022/11/18 11:30:34;;;;;;;1.15;0.68;;;;;;;;;;10506553;28;20044;-75
2022/11/18 11:35:41;;;;;;;1.08;0.80;;;;;;;;;;10510534;28;20548;-73
2022/11/18 11:40:51;;;;;;;1.05;0.60;;;;;;;;;;10511644;28;20040;-74
2022/11/18 11:46:02;;;;;;;2.22;0.98;;;;;;;;;;10512372;28;20128;-75
2022/11/18 11:51:08;;;;;;;1.58;0.95;;;;;;;;;;10507358;28;20036;-74
2022/11/18 11:56:14;;;;;;;3.45;1.25;;;;;;;;;;10506501;28;20098;-75
2022/11/18 12:01:33;;;;;;;2.50;0.80;;;;;;;;;;10513163;28;20389;-74
2022/11/18 12:06:41;;;;;;;1.45;0.63;;;;;;;;;;10507053;28;20488;-75
2022/11/18 12:11:49;;;;;;;1.40;0.57;;;;;;;;;;10498634;28;20561;-75
2022/11/18 12:16:55;;;;;;;1.10;0.52;;;;;;;;;;10496551;28;20028;-76
2022/11/18 12:22:02;;;;;;;1.23;0.75;;;;;;;;;;10509395;28;20039;-76
2022/11/18 12:27:11;;;;;;;1.60;0.50;;;;;;;;;;10507057;28;20461;-76
2022/11/18 12:32:25;;;;;;;1.77;0.47;;;;;;;;;;10511818;28;20040;-75
2022/11/18 12:37:43;;;;;;;0.50;0.50;;;;;;;;;;10504878;28;20040;-75
2022/11/18 12:48:22;;;;;;;0.30;0.30;;;;;;;;;;10489177;28;20039;-74
2022/11/18 12:53:39;;;;;;;2.03;0.40;;;;;;;;;;10512125;28;20234;-75
2022/11/18 12:58:45;;;;;;;0.68;0.25;;;;;;;;;;10498089;28;20493;-76
2022/11/18 13:03:48;;;;;;;0.77;0.40;;;;;;;;;;10517776;28;20112;-74
2022/11/18 13:08:56;;;;;;;0.45;0.35;;;;;;;;;;10523027;28;20048;-75
2022/11/18 13:19:22;;;;;;;0.40;0.40;;;;;;;;;;10509758;28;20036;-75
2022/11/18 13:24:24;;;;;;;0.40;0.40;;;;;;;;;;10488076;28;20359;-75
2022/11/18 13:29:32;;;;;;;0.35;0.20;;;;;;;;;;10497891;28;20047;-77
2022/11/18 13:34:40;;;;;;;0.38;0.38;;;;;;;;;;10520996;28;20078;-76
2022/11/18 13:39:44;;;;;;;0.30;0.30;;;;;;;;;;10506322;28;20055;-76
2022/11/18 13:44:53;;;;;;;0.77;0.40;;;;;;;;;;10506907;28;20053;-76
2022/11/18 13:49:59;;;;;;;1.23;0.50;;;;;;;;;;10512967;28;20106;-75
2022/11/18 13:55:03;;;;;;;0.50;0.47;;;;;;;;;;10520311;28;20104;-74
2022/11/18 14:00:08;;;;;;;4.13;1.38;;;;;;;;;;10518447;28;20580;-75
2022/11/18 14:05:16;;;;;;;1.48;0.65;;;;;;;;;;10530238;28;20040;-74
2022/11/18 14:10:29;;;;;;;1.83;0.73;;;;;;;;;;10512942;28;20040;-74
2022/11/18 14:15:43;;;;;;;2.20;0.73;;;;;;;;;;10530773;28;20121;-79
2022/11/18 14:20:50;;;;;;;1.75;0.98;;;;;;;;;;10503971;28;20080;-76
2022/11/18 14:25:53;;;;;;;1.20;0.95;;;;;;;;;;10530099;28;20028;-75
2022/11/18 14:30:59;;;;;;;1.90;1.10;;;;;;;;;;10529984;28;20443;-76
2022/11/18 14:36:03;;;;;;;1.70;1.30;;;;;;;;;;10513263;28;20516;-76
2022/11/18 14:41:07;;;;;;;1.63;1.10;;;;;;;;;;10510402;28;20052;-75
2022/11/18 14:46:15;;;;;;;1.60;0.98;;;;;;;;;;10527221;28;20500;-76
2022/11/18 14:51:17;;;;;;;1.40;1.02;;;;;;;;;;10543195;28;20067;-77
2022/11/18 14:56:22;;;;;;;1.58;1.08;;;;;;;;;;10528077;28;20055;-77
2022/11/18 15:01:28;;;;;;;1.25;1.08;;;;;;;;;;10530753;28;20097;-77
2022/11/18 15:06:32;;;;;;;1.33;0.70;;;;;;;;;;10530363;28;20064;-75
2022/11/18 15:11:35;;;;;;;0.60;0.60;;;;;;;;;;10518839;28;20044;-76
2022/11/18 15:16:41;;;;;;;0.75;0.63;;;;;;;;;;10516460;28;20074;-74
2022/11/18 15:21:45;;;;;;;1.33;0.60;;;;;;;;;;10517371;28;20094;-77
2022/11/18 15:26:48;;;;;;;1.10;0.57;;;;;;;;;;10524935;28;20083;-75
2022/11/18 15:31:52;;;;;;;0.57;0.55;;;;;;;;;;10511831;28;20040;-75
2022/11/18 15:36:54;;;;;;;;;;;;;;;;;;10520750;28;20126;-75
2022/11/18 15:41:57;;;;;;;0.65;0.65;;;;;;;;;;10513504;28;19936;-76
2022/11/18 15:47:01;;;;;;;1.60;0.82;;;;;;;;;;10516364;28;20074;-76
2022/11/18 15:52:04;;;;;;;1.60;0.73;;;;;;;;;;10521878;28;20154;-75
2022/11/18 15:57:10;;;;;;;1.33;0.65;;;;;;;;;;10523419;28;20661;-75
2022/11/18 16:02:14;;;;;;;1.92;0.82;;;;;;;;;;10514965;28;20768;-74
2022/11/18 16:07:16;;;;;;;0.95;0.82;;;;;;;;;;10515218;28;20067;-77
2022/11/18 16:17:44;;;;;;;2.05;1.20;;;;;;;;;;10518102;28;20036;-77
2022/11/18 16:22:47;;;;;;;3.22;1.50;;;;;;;;;;10511562;28;20129;-75
2022/11/18 16:27:50;;;;;;;3.38;1.38;;;;;;;;;;10519208;28;20044;-75
2022/11/18 16:32:54;;;;;;;3.53;1.38;;;;;;;;;;10522820;28;20446;-75
2022/11/18 16:37:57;;;;;;;2.85;1.83;;;;;;;;;;10522036;28;20028;-75
2022/11/18 16:42:59;;;;;;;3.30;1.58;;;;;;;;;;10508372;28;20627;-74
2022/11/18 16:48:03;;;;;;;3.05;0.98;;;;;;;;;;10524609;28;20048;-74
2022/11/18 16:53:06;;;;;;;2.25;1.20;;;;;;;;;;10522228;28;20097;-73
2022/11/18 16:58:10;;;;;;;2.03;0.95;;;;;;;;;;10532529;28;20045;-74
2022/11/18 17:03:14;;;;;;;1.10;0.80;;;;;;;;;;10514510;28;20043;-74
2022/11/18 17:08:17;;;;;;;1.88;0.90;;;;;;;;;;10510929;28;20059;-75
2022/11/18 17:13:19;;;;;;;3.35;1.17;;;;;;;;;;10517667;28;20040;-74
2022/11/18 17:18:23;;;;;;;3.53;1.00;;;;;;;;;;10524252;28;20594;-76
2022/11/18 17:23:27;;;;;;;3.42;1.55;;;;;;;;;;10505131;28;20036;-75
2022/11/18 17:28:36;;;;;;;2.92;1.40;;;;;;;;;;10516500;28;20040;-74
2022/11/18 17:33:41;;;;;;;1.90;1.17;;;;;;;;;;10516956;28;20055;-74
2022/11/18 17:38:44;;;;;;;2.15;1.10;;;;;;;;;;10520691;28;20081;-75
2022/11/18 17:43:47;;;;;;;2.43;1.00;;;;;;;;;;10510275;28;20052;-75
2022/11/18 17:48:55;;;;;;;4.03;1.48;;;;;;;;;;10509630;28;20112;-74
2022/11/18 17:54:02;;;;;;;6.13;1.73;;;;;;;;;;10525345;28;20045;-74
2022/11/18 17:59:04;;;;;;;5.38;2.58;;;;;;;;;;10519369;28;20035;-76
2022/11/18 18:04:08;;;;;;;6.32;2.33;;;;;;;;;;10509600;28;20090;-76
2022/11/18 18:09:11;;;;;;;3.90;1.80;;;;;;;;;;10515114;28;20032;-73
2022/11/18 18:14:13;;;;;;;2.85;1.25;;;;;;;;;;10509607;28;20047;-76
2022/11/18 18:19:18;;;;;;;6.38;2.08;;;;;;;;;;10512597;28;20473;-74
2022/11/18 18:24:21;;;;;;;3.42;1.40;;;;;;;;;;10515414;28;20105;-75
2022/11/18 18:29:24;;;;;;;3.33;1.83;;;;;;;;;;10501123;28;20171;-76
2022/11/18 18:34:28;;;;;;;8.98;2.55;;;;;;;;;;10532285;28;20617;-75
2022/11/18 18:39:31;;;;;;;5.20;1.90;;;;;;;;;;10531517;28;20109;-75
2022/11/18 18:49:55;;;;;;;4.32;1.88;;;;;;;;;;10522073;28;20044;-75
2022/11/18 18:55:03;;;;;;;9.32;2.80;;;;;;;;;;10526282;28;20040;-75
2022/11/18 19:00:06;;;;;;;8.63;2.92;;;;;;;;;;10522017;28;20032;-75
2022/11/18 19:05:10;;;;;;;4.15;2.00;;;;;;;;;;10527519;28;20050;-77
2022/11/18 19:10:16;;;;;;;5.80;2.92;;;;;;;;;;10544741;28;20459;-77
2022/11/18 19:15:21;;;;;;;4.70;2.30;;;;;;;;;;10530853;28;20039;-76
2022/11/18 19:20:35;;;;;;;2.40;1.02;;;;;;;;;;10546418;28;20035;-74
2022/11/18 19:25:38;;;;;;;2.15;1.02;;;;;;;;;;10531212;28;20042;-74
2022/11/18 19:30:41;;;;;;;4.15;1.55;;;;;;;;;;10531145;28;20055;-76
2022/11/18 19:35:45;;;;;;;1.38;1.02;;;;;;;;;;10536294;28;20055;-75
2022/11/18 19:40:48;;;;;;;3.00;1.40;;;;;;;;;;10544108;28;20469;-73
2022/11/18 19:45:51;;;;;;;2.78;1.08;;;;;;;;;;10536994;28;20080;-74
2022/11/18 19:51:04;;;;;;;2.58;1.42;;;;;;;;;;10542973;28;20461;-73
2022/11/18 19:56:20;;;;;;;5.70;2.75;;;;;;;;;;10539992;28;20044;-74
2022/11/18 20:01:24;;;;;;;9.63;3.78;;;;;;;;;;10535950;28;20174;-74
2022/11/18 20:06:28;;;;;;;2.20;1.52;;;;;;;;;;10531568;28;20043;-75
2022/11/18 20:11:31;;;;;;;2.25;1.52;;;;;;;;;;10534680;28;20045;-74
2022/11/18 20:16:36;;;;;;;5.93;1.90;;;;;;;;;;10524671;28;20039;-75
2022/11/18 20:21:42;;;;;;;1.63;1.00;;;;;;;;;;10530154;28;20044;-74
2022/11/18 20:26:52;;;;;;;3.65;2.03;;;;;;;;;;10531391;28;20566;-74
2022/11/18 20:31:55;;;;;;;3.63;1.85;;;;;;;;;;10520240;28;20033;-76
2022/11/18 20:36:59;;;;;;;2.58;1.88;;;;;;;;;;10514092;28;20037;-75
2022/11/18 20:47:22;;;;;;;2.35;1.15;;;;;;;;;;10542484;28;20046;-75
2022/11/18 20:52:27;;;;;;;4.57;1.80;;;;;;;;;;10505098;28;20189;-75
2022/11/18 20:57:30;;;;;;;2.63;1.35;;;;;;;;;;10528044;28;20516;-74
2022/11/18 21:02:33;;;;;;;3.80;1.75;;;;;;;;;;10523958;28;20048;-75
2022/11/18 21:07:37;;;;;;;3.90;1.88;;;;;;;;;;10526897;28;20070;-74
2022/11/18 21:18:03;;;;;;;3.25;1.33;;;;;;;;;;10523494;28;20036;-74
2022/11/18 21:23:07;;;;;;;2.45;1.45;;;;;;;;;;10527761;28;20105;-75
2022/11/18 21:28:10;;;;;;;;;;;;;;;;;;10540610;28;20147;-75
2022/11/18 21:33:13;;;;;;;5.68;2.28;;;;;;;;;;10523980;28;19924;-74
2022/11/18 21:38:17;;;;;;;4.78;1.20;;;;;;;;;;10533566;28;20478;-74
2022/11/18 21:43:19;;;;;;;;;;;;;;;;;;10529195;28;20097;-76
2022/11/18 21:48:34;;;;;;;1.40;1.08;;;;;;;;;;10538080;28;19928;-76
2022/11/18 21:53:39;;;;;;;5.47;2.40;;;;;;;;;;10527809;28;20051;-74
2022/11/18 21:58:42;;;;;;;2.92;1.58;;;;;;;;;;10529890;28;20044;-76
2022/11/18 22:03:47;;;;;;;1.58;1.15;;;;;;;;;;10527665;28;20071;-75
2022/11/18 22:08:58;;;;;;;1.45;1.00;;;;;;;;;;10526498;28;20375;-74
2022/11/18 22:14:02;;;;;;;3.47;1.02;;;;;;;;;;10527667;28;20058;-74
2022/11/18 22:19:05;;;;;;;0.85;0.63;;;;;;;;;;10524749;28;20619;-73
2022/11/18 22:24:11;;;;;;;1.08;0.50;;;;;;;;;;10531446;28;21445;-74
2022/11/18 22:29:14;;;;;;;;;;;;;;;;;;10514993;28;20032;-73
2022/11/18 22:34:16;;;;;;;1.75;0.85;;;;;;;;;;10517867;28;19931;-74
2022/11/18 22:39:20;;;;;;;3.88;1.20;;;;;;;;;;10520380;28;20032;-74
2022/11/18 22:44:23;;;;;;;4.30;1.10;;;;;;;;;;10544918;28;20052;-74
2022/11/18 22:49:26;;;;;;;1.15;0.52;;;;;;;;;;10522172;28;20098;-74
2022/11/18 22:54:30;;;;;;;0.93;0.85;;;;;;;;;;10525829;28;20094;-74
2022/11/18 22:59:41;;;;;;;2.90;1.30;;;;;;;;;;10524155;28;20372;-74
2022/11/18 23:04:43;;;;;;;0.93;0.70;;;;;;;;;;10528379;28;20470;-75
2022/11/18 23:09:47;;;;;;;1.83;0.90;;;;;;;;;;10524259;28;20036;-75
2022/11/18 23:14:50;;;;;;;2.10;1.02;;;;;;;;;;10522906;28;20497;-75
2022/11/18 23:19:52;;;;;;;0.30;0.30;;;;;;;;;;10530482;28;20067;-74
2022/11/18 23:24:57;;;;;;;1.65;0.82;;;;;;;;;;10534749;28;20522;-74
2022/11/18 23:29:59;;;;;;;;;;;;;;;;;;10528409;28;20039;-74
2022/11/18 23:35:01;;;;;;;1.45;0.88;;;;;;;;;;10526900;28;20005;-76
2022/11/18 23:40:06;;;;;;;1.02;0.45;;;;;;;;;;10521145;28;20028;-75
2022/11/18 23:45:09;;;;;;;0.93;0.50;;;;;;;;;;10512401;28;20117;-75
2022/11/18 23:50:12;;;;;;;0.50;0.50;;;;;;;;;;10513748;28;20071;-76
2022/11/18 23:55:16;;;;;;;1.40;0.85;;;;;;;;;;10516191;28;20048;-74
